Flight Track Log - Related Links

Times and Time Zones

All times are in EDT time to prevent confusion due to time zone crossing. See the RPA3196 flight status page for this flight to view local times or setup timezone preferences in your user account.

Time Position Orientation Groundspeed Altitude Reporting Facility
EDT Latitude Longitude Course Direction KTS MPH feet Rate Location/Type
Thu 09:45:26 AM 39.8667 -75.2833 307° West 157 181 900  Level Philadelphia TRACON
Thu 09:46:03 AM 39.8500 -75.3167 237° Southwest 165 190 1,700 1,732 Climbing Philadelphia TRACON
Thu 09:47:00 AM 40.1303 -75.4803 323° Northwest  Level FlightAware Approximate
Thu 09:47:03 AM 39.8333 -75.4000 255° West 254 292 3,700  Level Philadelphia TRACON
Thu 09:48:00 AM 40.2209 -75.5563 311° West  Level FlightAware Approximate
Thu 09:48:03 AM 39.8833 -75.4500 323° Northwest 258 297 7,300  Level Philadelphia TRACON
Thu 09:49:00 AM 40.2938 -75.6656 311° West  Level FlightAware Approximate
Thu 09:49:03 AM 39.9667 -75.4667 351° North 279 321 10,000  Level Philadelphia TRACON
Thu 09:50:00 AM 40.3622 -75.7797 307° West  Level FlightAware Approximate
Thu 09:50:52 AM 40.1094 -75.5258 342° North 349 402 13,000  Level New York Center
Thu 09:51:53 AM 40.1936 -75.5533 346° North 325 374 13,600 1,415 Climbing New York Center
Thu 09:52:55 AM 40.2558 -75.6147 323° Northwest 318 366 15,900 1,672 Climbing New York Center
Thu 09:53:55 AM 40.3208 -75.7064 313° West 308 354 17,000 756 Climbing New York Center
Thu 09:54:54 AM 40.3758 -75.7894 311° West 308 354 17,400 1,210 Climbing New York Center
Thu 09:55:54 AM 40.4286 -75.8694 311° West 308 354 19,400 2,000 Climbing New York Center
Thu 09:56:54 AM 40.4550 -75.9781 288° West 315 362 21,400 1,311 Climbing New York Center
Thu 09:57:53 AM 40.4708 -76.0936 280° West 310 357 22,000 793 Climbing New York Center
Thu 09:58:55 AM 40.4906 -76.2100 283° West 320 368 23,000 1,279 Climbing New York Center
Thu 09:59:55 AM 40.5781 -76.2525 340° North 292 336 24,600 1,600 Climbing New York Center
Thu 10:00:55 AM 40.6872 -76.2336 North 308 354 26,200 1,220 Climbing New York Center
Thu 10:01:53 AM 40.8006 -76.2208 North 357 411 27,000 407 Climbing New York Center
Thu 10:02:53 AM 40.9097 -76.2022 North 386 444 27,000  Level New York Center
Thu 10:03:54 AM 41.0228 -76.1919 North 400 460 27,000  Level New York Center
Thu 10:04:52 AM 41.1286 -76.1975 358° North 400 460 27,000  Level New York Center
Thu 10:05:53 AM 41.2389 -76.2036 358° North 394 453 27,000  Level New York Center
Thu 10:06:53 AM 41.3614 -76.2081 358° North 389 448 27,000  Level New York Center
Thu 10:09:20 AM 41.6206 -76.2117 359° North 386 444 27,000  Level Boston Center
Thu 10:10:20 AM 41.7189 -76.1339 31° Northeast 386 444 27,000  Level Boston Center
Thu 10:11:20 AM 41.7861 -75.9875 58° Northeast 400 460 27,000  Level Boston Center
Thu 10:12:20 AM 41.8492 -75.8378 60° Northeast 438 504 27,000  Level Boston Center
Thu 10:13:20 AM 41.9142 -75.6878 60° Northeast 444 511 27,000  Level Boston Center
Thu 10:14:20 AM 42.0067 -75.5778 41° Northeast 437 503 27,000  Level Boston Center
Thu 10:15:20 AM 42.1053 -75.4847 35° Northeast 432 497 27,000  Level Boston Center
Thu 10:16:20 AM 42.2056 -75.3917 34° Northeast 432 497 27,000  Level Boston Center
Thu 10:17:20 AM 42.3017 -75.3008 35° Northeast 432 497 27,000  Level Boston Center
Thu 10:18:20 AM 42.4022 -75.2069 35° Northeast 432 497 27,000  Level Boston Center
Thu 10:19:20 AM 42.5025 -75.1100 35° Northeast 432 497 27,000  Level Boston Center
Thu 10:20:20 AM 42.6025 -75.0156 35° Northeast 432 497 27,000  Level Boston Center
Thu 10:21:20 AM 42.7047 -74.9181 35° Northeast 439 505 27,000  Level Boston Center
Thu 10:22:20 AM 42.8047 -74.8200 36° Northeast 439 505 27,000  Level Boston Center
Thu 10:23:20 AM 42.9047 -74.7247 35° Northeast 439 505 27,000  Level Boston Center
Thu 10:24:20 AM 43.0067 -74.6236 36° Northeast 444 511 27,000  Level Boston Center
Thu 10:25:20 AM 43.1086 -74.5247 35° Northeast 444 511 27,000  Level Boston Center
Thu 10:26:20 AM 43.2125 -74.4228 36° Northeast 444 511 27,000 -500 Level Boston Center
Thu 10:27:20 AM 43.3144 -74.3233 35° Northeast 444 511 26,000 -1,500 Descending Boston Center
Thu 10:28:20 AM 43.4117 -74.2264 36° Northeast 444 511 24,000 -1,000 Descending Boston Center
Thu 10:29:20 AM 43.5092 -74.1319 35° Northeast 439 505 24,000 -250 Level Boston Center
Thu 10:30:20 AM 43.6064 -74.0342 36° Northeast 439 505 23,500 -1,350 Descending Boston Center
Thu 10:31:20 AM 43.6994 -73.9419 36° Northeast 427 491 21,300 -2,450 Descending Boston Center
Thu 10:32:20 AM 43.7881 -73.8494 37° Northeast 414 476 18,600 -2,600 Descending Boston Center
Thu 10:33:20 AM 43.8767 -73.7592 36° Northeast 403 464 16,100 -2,650 Descending Boston Center
Thu 10:34:20 AM 43.9589 -73.6775 36° Northeast 377 434 13,300 -2,350 Descending Boston Center
Thu 10:35:20 AM 44.0389 -73.5981 36° Northeast 356 410 11,400 -1,150 Descending Boston Center
Thu 10:36:20 AM 44.1125 -73.5244 36° Northeast 338 389 11,000 -1,000 Descending Boston Center
Thu 10:37:20 AM 44.1778 -73.4561 37° Northeast 304 350 9,400 -1,750 Descending Boston Center
Thu 10:38:20 AM 44.2450 -73.3878 36° Northeast 293 337 7,500 -2,250 Descending Boston Center
Thu 10:39:20 AM 44.3100 -73.3308 32° Northeast 293 337 4,900 -2,300 Descending Boston Center
Thu 10:40:20 AM 44.3828 -73.3347 358° North 259 298 2,900 -950 Descending Boston Center
Thu 10:41:20 AM 44.4514 -73.3533 349° North 254 292 3,000 -50 Climbing Boston Center
Thu 10:42:20 AM 44.5158 -73.3686 350° North 248 285 2,800 -400 Descending Boston Center
Thu 10:43:20 AM 44.5661 -73.3550 11° North 206 237 2,200 -300 Descending Boston Center
Thu 10:44:20 AM 44.5439 -73.2703 110° East 128 147 2,200  Level Boston Center

Login

Don't have an account? Register now (free) for customized features, flight alerts, and more!